Time;durP1;ratioP1;P1;durP2;ratioP2;P2;SDS_P1;SDS_P2;PMS_P1;PMS_P2;Temp;Humidity;BMP_temperature;BMP_pressure;BME280_temperature;BME280_humidity;BME280_pressure;Samples;Min_cycle;Max_cycle;Signal;HPM_P1;HPM_P2
2021/12/14 00:02:08;;;;;;;21.05;11.25;;;;;;;7.29;94.28;102593.22;5014545;28;20050;-60
2021/12/14 00:04:35;;;;;;;22.30;11.60;;;;;;;7.26;94.29;102597.31;5014367;28;20124;-60
2021/12/14 00:07:06;;;;;;;20.88;11.18;;;;;;;7.26;94.48;102589.03;5014137;28;20036;-60
2021/12/14 00:09:35;;;;;;;21.00;10.60;;;;;;;7.24;94.79;102593.94;5014179;28;20021;-58
2021/12/14 00:17:27;;;;;;;20.52;11.30;;;;;;;7.14;95.39;102583.53;5014312;28;20033;-60
2021/12/14 00:19:58;;;;;;;21.20;11.13;;;;;;;7.11;95.21;102575.78;5013591;28;20057;-60
2021/12/14 00:24:06;;;;;;;21.50;11.30;;;;;;;7.16;95.28;102591.56;5013292;28;20033;-59
2021/12/14 00:25:29;;;;;;;21.90;11.60;;;;;;;7.15;95.08;102601.72;5012996;28;20045;-60
2021/12/14 00:27:58;;;;;;;20.13;10.45;;;;;;;7.19;94.84;102593.81;5013776;28;20068;-60
2021/12/14 00:30:24;;;;;;;20.75;10.70;;;;;;;7.24;94.39;102591.19;5013312;28;20037;-60
2021/12/14 00:32:49;;;;;;;21.00;10.40;;;;;;;7.21;94.96;102582.59;5013894;28;20022;-60
2021/12/14 00:35:15;;;;;;;20.27;9.68;;;;;;;7.22;94.88;102598.84;5013845;28;20025;-60
2021/12/14 00:37:45;;;;;;;19.30;9.63;;;;;;;7.21;95.15;102599.09;5013943;28;20209;-59
2021/12/14 00:40:17;;;;;;;19.98;9.90;;;;;;;7.21;95.20;102597.19;5013513;28;20033;-59
2021/12/14 00:42:43;;;;;;;20.50;10.57;;;;;;;7.23;94.87;102605.19;5023299;28;20087;-59
2021/12/14 00:45:09;;;;;;;20.58;10.60;;;;;;;7.25;95.02;102603.88;5032904;28;20064;-60
2021/12/14 00:47:35;;;;;;;20.38;9.98;;;;;;;7.23;95.29;102614.28;5033580;28;20030;-60
2021/12/14 00:50:01;;;;;;;19.63;9.68;;;;;;;7.27;95.08;102620.16;5033363;28;20112;-60
2021/12/14 00:52:26;;;;;;;20.42;9.90;;;;;;;7.28;95.45;102621.84;5032728;28;20436;-59
2021/12/14 00:54:52;;;;;;;19.95;9.82;;;;;;;7.30;95.05;102631.53;5032468;28;20424;-59
2021/12/14 00:57:17;;;;;;;22.00;10.88;;;;;;;7.35;95.14;102633.56;5033263;28;20120;-59
2021/12/14 00:59:43;;;;;;;21.60;10.55;;;;;;;7.42;94.80;102644.44;5032961;28;20537;-59
2021/12/14 01:02:15;;;;;;;20.10;9.75;;;;;;;7.39;94.86;102637.50;5032784;28;20029;-59
2021/12/14 01:04:49;;;;;;;21.35;10.38;;;;;;;7.35;95.21;102636.31;5033153;28;20481;-59
2021/12/14 01:07:18;;;;;;;20.63;10.55;;;;;;;7.37;95.10;102636.09;5033147;28;20044;-60
2021/12/14 01:09:47;;;;;;;20.65;10.32;;;;;;;7.35;95.09;102628.03;5032673;28;20040;-60
2021/12/14 01:12:25;;;;;;;20.73;10.60;;;;;;;7.28;95.28;102605.31;5032292;28;20048;-59
2021/12/14 01:15:23;;;;;;;21.25;10.52;;;;;;;7.31;95.30;102611.16;5032997;28;20029;-60
2021/12/14 01:18:12;;;;;;;21.73;10.80;;;;;;;7.29;95.17;102624.34;5032601;28;20065;-60
2021/12/14 01:20:40;;;;;;;22.17;11.73;;;;;;;7.24;95.35;102620.63;5032546;28;20025;-60
2021/12/14 01:23:15;;;;;;;21.40;10.90;;;;;;;7.23;95.51;102619.81;5033065;28;20108;-60
2021/12/14 01:25:43;;;;;;;22.02;10.90;;;;;;;7.17;95.59;102616.09;5032866;28;20025;-61
2021/12/14 01:28:21;;;;;;;21.75;11.15;;;;;;;7.23;95.96;102619.81;5032569;28;20036;-59
2021/12/14 01:31:05;;;;;;;22.23;11.82;;;;;;;7.21;95.83;102610.94;5032085;28;20041;-59
2021/12/14 01:33:31;;;;;;;;;;;;;;;7.24;95.62;102601.34;5037482;28;20393;-59
2021/12/14 01:35:57;;;;;;;22.17;10.77;;;;;;;7.14;95.94;102597.28;5036192;28;19954;-59
2021/12/14 01:40:56;;;;;;;22.40;10.32;;;;;;;7.12;96.21;102595.88;5036417;28;20030;-58
2021/12/14 01:43:34;;;;;;;21.25;10.77;;;;;;;7.13;96.37;102587.34;5036437;28;20041;-58
2021/12/14 01:46:07;;;;;;;23.38;11.40;;;;;;;7.07;96.54;102593.81;5036700;28;20041;-58
2021/12/14 01:48:33;;;;;;;21.20;10.60;;;;;;;7.07;96.51;102598.50;5036481;28;20022;-58
2021/12/14 01:51:03;;;;;;;22.92;12.35;;;;;;;7.02;96.66;102588.22;5036553;28;20044;-59
2021/12/14 01:53:28;;;;;;;21.50;11.45;;;;;;;7.02;97.14;102585.47;5035609;28;20029;-58
2021/12/14 01:55:58;;;;;;;21.15;11.73;;;;;;;6.95;97.10;102579.22;5036388;28;20028;-59
2021/12/14 01:58:32;;;;;;;22.17;11.43;;;;;;;6.93;97.30;102568.47;5036289;28;20029;-57
2021/12/14 02:01:04;;;;;;;22.02;12.02;;;;;;;6.94;97.07;102580.31;5035660;28;20025;-59
2021/12/14 02:03:35;;;;;;;22.98;11.82;;;;;;;6.91;97.27;102578.03;5035406;28;20034;-59
2021/12/14 02:06:00;;;;;;;23.52;12.18;;;;;;;6.97;97.23;102577.94;5035370;28;20472;-60
2021/12/14 02:08:32;;;;;;;22.83;12.43;;;;;;;6.90;97.26;102560.69;5035076;28;20036;-60
2021/12/14 02:10:59;;;;;;;21.98;11.05;;;;;;;6.95;97.31;102574.56;5036133;28;20036;-60
2021/12/14 02:13:28;;;;;;;22.25;10.73;;;;;;;6.94;97.30;102563.81;5036149;28;20017;-59
2021/12/14 02:15:53;;;;;;;23.30;11.43;;;;;;;6.89;97.20;102556.28;5035701;28;20032;-59
2021/12/14 02:18:23;;;;;;;23.35;11.32;;;;;;;6.89;97.20;102550.78;5034694;28;20021;-59
2021/12/14 02:20:54;;;;;;;22.00;11.98;;;;;;;6.92;97.16;102563.22;5035963;28;20085;-59
2021/12/14 02:23:20;;;;;;;21.23;11.00;;;;;;;6.97;97.22;102569.69;5036076;28;20112;-58
2021/12/14 02:25:47;;;;;;;21.50;11.30;;;;;;;7.01;97.33;102579.09;5035613;28;20116;-59
2021/12/14 02:28:16;;;;;;;23.15;11.43;;;;;;;7.01;96.93;102567.28;5036011;28;20087;-57
2021/12/14 02:30:43;;;;;;;23.05;12.05;;;;;;;6.98;96.80;102573.25;5036046;28;20024;-58
2021/12/14 02:33:13;;;;;;;20.70;10.85;;;;;;;7.00;96.75;102579.34;5035591;28;20042;-58
2021/12/14 02:35:39;;;;;;;21.63;10.70;;;;;;;7.06;96.53;102580.31;5035976;28;20116;-58
2021/12/14 02:38:09;;;;;;;20.50;10.50;;;;;;;7.05;96.52;102581.41;5035403;28;20104;-57
2021/12/14 02:40:53;;;;;;;20.50;10.90;;;;;;;7.02;96.30;102579.97;5035687;28;20029;-58
2021/12/14 02:43:41;;;;;;;21.35;10.05;;;;;;;7.05;95.96;102579.47;5035483;28;20057;-58
2021/12/14 02:46:13;;;;;;;21.17;10.77;;;;;;;7.05;95.89;102581.41;5035535;28;20026;-58
2021/12/14 02:48:44;;;;;;;23.98;11.30;;;;;;;7.07;95.81;102582.00;5035751;28;20488;-58
2021/12/14 02:51:14;;;;;;;21.85;9.98;;;;;;;6.98;95.69;102568.59;5035829;28;20032;-59
2021/12/14 02:53:42;;;;;;;19.42;9.88;;;;;;;7.05;95.68;102571.22;5035692;28;20025;-59
2021/12/14 02:56:12;;;;;;;21.38;9.60;;;;;;;6.97;95.34;102555.06;5035151;28;20029;-58
2021/12/14 02:58:38;;;;;;;21.27;9.77;;;;;;;7.00;95.54;102547.16;5035590;28;20076;-58
2021/12/14 03:01:05;;;;;;;20.27;9.48;;;;;;;7.01;95.49;102559.84;5035385;28;20029;-59
2021/12/14 03:03:30;;;;;;;20.98;9.85;;;;;;;7.00;95.50;102571.94;5035751;28;20435;-58
2021/12/14 03:05:59;;;;;;;19.77;10.15;;;;;;;6.99;95.42;102553.75;5035150;28;20038;-58
2021/12/14 03:08:27;;;;;;;19.92;9.55;;;;;;;6.97;95.43;102560.56;5035363;28;20075;-58
2021/12/14 03:11:10;;;;;;;19.52;9.40;;;;;;;6.82;95.30;102530.78;5034340;28;20060;-58
2021/12/14 03:13:51;;;;;;;20.10;9.95;;;;;;;6.87;95.27;102541.91;5033684;28;20021;-58
2021/12/14 03:16:25;;;;;;;19.75;9.68;;;;;;;6.83;95.51;102532.47;5033582;28;20026;-58
2021/12/14 03:18:53;;;;;;;21.10;9.98;;;;;;;6.81;95.64;102540.97;5034181;28;20120;-58
2021/12/14 03:21:26;;;;;;;19.70;9.25;;;;;;;6.75;95.50;102517.16;5034311;28;20109;-59
2021/12/14 03:24:02;;;;;;;22.00;9.95;;;;;;;6.84;95.28;102539.63;5034613;28;20061;-59
2021/12/14 03:26:30;;;;;;;20.48;9.60;;;;;;;6.84;95.07;102531.38;5033787;28;20116;-59
2021/12/14 03:28:59;;;;;;;20.35;9.48;;;;;;;6.81;95.09;102524.44;5034501;28;20025;-59
2021/12/14 03:31:32;;;;;;;19.90;10.05;;;;;;;6.78;95.23;102522.16;5033594;28;20025;-59
2021/12/14 03:34:12;;;;;;;20.55;9.40;;;;;;;6.71;95.40;102504.97;5034653;28;20029;-59
2021/12/14 03:37:09;;;;;;;19.65;8.95;;;;;;;6.77;95.91;102527.91;5034092;28;20032;-60
2021/12/14 03:39:38;;;;;;;19.38;9.35;;;;;;;6.77;95.57;102530.66;5033298;28;20041;-59
2021/12/14 03:42:34;;;;;;;20.10;9.27;;;;;;;6.80;95.81;102521.94;5034537;28;20103;-60
2021/12/14 03:44:59;;;;;;;19.17;8.90;;;;;;;6.79;95.12;102531.28;5034967;28;20043;-59
2021/12/14 03:47:29;;;;;;;19.20;8.75;;;;;;;6.74;94.89;102523.75;5034072;28;20029;-59
2021/12/14 03:49:57;;;;;;;20.23;9.80;;;;;;;6.79;94.97;102536.78;5034216;28;20029;-58
2021/12/14 03:52:27;;;;;;;21.23;9.30;;;;;;;6.80;94.79;102550.28;5034723;28;20049;-60
2021/12/14 03:54:53;;;;;;;19.60;9.18;;;;;;;6.78;94.96;102566.19;5033598;28;20026;-60
2021/12/14 03:57:19;;;;;;;20.60;9.25;;;;;;;6.85;94.36;102575.16;5034051;28;20034;-59
2021/12/14 03:59:45;;;;;;;19.13;8.70;;;;;;;6.80;94.69;102565.97;5034361;28;20037;-60
2021/12/14 04:02:13;;;;;;;19.98;9.57;;;;;;;6.82;94.96;102581.16;5033789;28;20045;-60
2021/12/14 04:04:43;;;;;;;20.08;9.45;;;;;;;6.81;95.01;102590.47;5033940;28;20036;-60
2021/12/14 04:07:13;;;;;;;20.23;9.40;;;;;;;6.79;94.62;102578.88;5033731;28;20101;-60
2021/12/14 04:09:40;;;;;;;19.77;8.93;;;;;;;6.84;94.29;102597.41;5034032;28;20030;-60
2021/12/14 04:12:09;;;;;;;19.23;8.85;;;;;;;6.84;94.59;102589.16;5034197;28;20040;-59
2021/12/14 04:14:39;;;;;;;19.20;9.10;;;;;;;6.84;94.58;102581.75;5033423;28;20100;-59
2021/12/14 04:17:07;;;;;;;22.33;10.07;;;;;;;6.74;94.54;102570.50;5049013;28;20040;-60
2021/12/14 04:19:35;;;;;;;19.67;9.15;;;;;;;6.80;94.90;102583.28;5033379;28;20025;-60
2021/12/14 04:22:05;;;;;;;22.02;9.98;;;;;;;6.75;94.42;102568.56;5033244;28;20029;-59
2021/12/14 04:24:34;;;;;;;21.27;9.70;;;;;;;6.79;95.04;102576.13;5033706;28;20021;-59
2021/12/14 04:27:03;;;;;;;20.80;10.40;;;;;;;6.77;94.63;102569.19;5033486;28;20104;-59
2021/12/14 04:29:29;;;;;;;20.92;9.60;;;;;;;6.76;95.05;102573.81;5033343;28;20040;-59
2021/12/14 04:31:55;;;;;;;20.95;10.20;;;;;;;6.70;94.92;102575.66;5032945;28;20040;-59
2021/12/14 04:34:21;;;;;;;21.58;10.05;;;;;;;6.70;95.00;102570.16;5032903;28;20021;-59
2021/12/14 04:36:51;;;;;;;22.20;10.27;;;;;;;6.69;95.04;102562.09;5033561;28;20056;-58
2021/12/14 04:53:02;;;;;;;24.42;11.65;;;;;;;6.72;95.27;102551.47;5033485;28;20379;-60
2021/12/14 04:55:27;;;;;;;23.60;12.20;;;;;;;6.67;94.95;102545.00;5033089;28;20040;-60
2021/12/14 04:57:52;;;;;;;24.42;11.70;;;;;;;6.66;95.43;102546.09;5033345;28;20025;-59
2021/12/14 05:00:30;;;;;;;23.65;11.38;;;;;;;6.54;95.80;102537.81;5033308;28;20061;-59
2021/12/14 05:02:58;;;;;;;22.98;11.45;;;;;;;6.64;95.74;102545.50;5032913;28;20384;-59
2021/12/14 05:05:28;;;;;;;24.80;11.55;;;;;;;6.66;95.95;102552.44;5033129;28;20025;-60
2021/12/14 05:10:39;;;;;;;23.45;11.93;;;;;;;6.63;95.71;102533.66;5033150;28;20037;-60
2021/12/14 05:13:05;;;;;;;24.08;11.90;;;;;;;6.63;96.08;102546.56;5033285;28;20030;-60
2021/12/14 05:15:31;;;;;;;23.10;12.07;;;;;;;6.62;96.03;102531.13;5032659;28;20463;-59
2021/12/14 05:17:57;;;;;;;24.80;12.35;;;;;;;6.63;96.12;102550.16;5032402;28;20030;-59
2021/12/14 05:20:22;;;;;;;25.70;12.80;;;;;;;6.63;96.01;102544.63;5033596;28;20038;-59
2021/12/14 05:22:48;;;;;;;23.65;12.15;;;;;;;6.65;96.22;102544.44;5032024;28;20033;-60
2021/12/14 05:25:26;;;;;;;24.83;12.73;;;;;;;6.60;96.23;102538.78;5032637;28;20024;-59
2021/12/14 05:27:57;;;;;;;25.70;12.88;;;;;;;6.62;95.80;102531.13;5032604;28;20593;-59
2021/12/14 05:30:27;;;;;;;26.38;13.00;;;;;;;6.66;96.02;102544.19;5031758;28;20396;-59
2021/12/14 05:33:06;;;;;;;25.60;12.57;;;;;;;6.67;95.96;102543.09;5032809;28;20033;-59
2021/12/14 05:35:32;;;;;;;25.77;12.38;;;;;;;6.63;95.57;102530.88;5032390;28;20076;-59
2021/12/14 05:37:59;;;;;;;26.58;12.80;;;;;;;6.64;96.15;102532.56;5032645;28;20104;-60
2021/12/14 05:43:16;;;;;;;25.50;12.82;;;;;;;6.64;95.98;102540.00;5032724;28;20045;-59
2021/12/14 05:45:46;;;;;;;26.90;13.23;;;;;;;6.63;95.74;102538.31;5032492;28;20025;-60
2021/12/14 05:48:22;;;;;;;25.98;13.52;;;;;;;6.64;95.94;102542.75;5032529;28;20069;-59
2021/12/14 05:50:51;;;;;;;26.20;13.57;;;;;;;6.56;95.81;102531.00;5047391;28;20112;-60
2021/12/14 05:53:20;;;;;;;27.85;13.88;;;;;;;6.59;95.97;102548.97;5032573;28;20033;-60
2021/12/14 05:55:46;;;;;;;25.92;12.65;;;;;;;6.61;96.05;102551.47;5032530;28;20095;-59
2021/12/14 05:58:16;;;;;;;26.70;13.40;;;;;;;6.61;95.78;102552.31;5032550;28;20499;-60
2021/12/14 06:00:45;;;;;;;26.50;12.95;;;;;;;6.59;96.04;102557.22;5032312;28;20030;-61
2021/12/14 06:03:27;;;;;;;26.83;13.25;;;;;;;6.58;95.99;102540.94;5031945;28;20472;-60
2021/12/14 06:05:54;;;;;;;27.33;13.43;;;;;;;6.61;96.02;102556.97;5032356;28;20119;-59
2021/12/14 06:08:24;;;;;;;28.67;14.13;;;;;;;6.51;95.69;102533.63;5032072;28;20171;-59
2021/12/14 06:10:50;;;;;;;28.08;14.07;;;;;;;6.58;96.13;102560.19;5031850;28;20033;-60
2021/12/14 06:13:17;;;;;;;27.27;12.95;;;;;;;6.61;95.95;102568.81;5032460;28;20022;-60
2021/12/14 06:15:43;;;;;;;25.50;13.30;;;;;;;6.61;96.12;102562.47;5031992;28;20409;-59
2021/12/14 06:18:09;;;;;;;27.10;13.27;;;;;;;6.62;95.84;102562.22;5034145;28;20110;-59
2021/12/14 06:20:34;;;;;;;26.60;14.45;;;;;;;6.64;95.71;102564.75;5035858;28;20065;-59
2021/12/14 06:22:59;;;;;;;25.80;13.35;;;;;;;6.67;95.28;102567.84;5036220;28;20021;-60
2021/12/14 06:25:27;;;;;;;29.15;14.70;;;;;;;6.56;95.63;102552.16;5035796;28;20025;-59
2021/12/14 06:27:56;;;;;;;28.50;14.40;;;;;;;6.67;95.72;102572.50;5033994;28;20515;-59
2021/12/14 06:30:26;;;;;;;27.92;13.95;;;;;;;6.63;95.65;102568.56;5035796;28;20021;-59
2021/12/14 06:32:58;;;;;;;29.52;14.73;;;;;;;6.65;95.52;102574.69;5035917;28;20033;-59
2021/12/14 06:35:30;;;;;;;28.27;14.48;;;;;;;6.71;95.24;102577.28;5034531;28;20040;-59
2021/12/14 06:38:24;;;;;;;28.65;14.73;;;;;;;6.71;95.60;102574.53;5036230;28;20420;-59
2021/12/14 06:40:56;;;;;;;;;;;;;;;6.75;95.36;102571.31;5053911;28;20127;-59
2021/12/14 06:43:28;;;;;;;27.45;13.55;;;;;;;6.65;95.36;102567.25;5055808;28;19916;-59
2021/12/14 06:45:57;;;;;;;29.42;14.73;;;;;;;6.66;95.62;102581.84;5055456;28;20047;-60
2021/12/14 06:48:52;;;;;;;28.92;14.35;;;;;;;6.74;95.21;102581.50;5056065;28;20610;-60
2021/12/14 06:51:30;;;;;;;29.20;14.55;;;;;;;6.67;94.92;102570.59;5053946;28;20075;-59
2021/12/14 06:53:59;;;;;;;29.17;15.15;;;;;;;6.71;94.97;102581.97;5055802;28;20029;-59
2021/12/14 06:56:27;;;;;;;29.60;14.60;;;;;;;6.63;95.33;102590.56;5055510;28;20025;-59
2021/12/14 06:58:57;;;;;;;29.55;14.93;;;;;;;6.64;95.46;102600.50;5055323;28;20087;-59
2021/12/14 07:01:36;;;;;;;28.10;15.48;;;;;;;6.70;95.52;102603.16;5055376;28;20468;-59
2021/12/14 07:04:07;;;;;;;29.98;15.30;;;;;;;6.62;95.37;102591.63;5055383;28;20029;-60
2021/12/14 07:06:43;;;;;;;30.70;15.90;;;;;;;6.67;95.46;102600.88;5056356;28;20183;-59
2021/12/14 07:09:10;;;;;;;31.08;16.05;;;;;;;6.67;95.27;102602.75;5056661;28;20486;-59
2021/12/14 07:11:37;;;;;;;31.20;15.57;;;;;;;6.65;95.73;102608.50;5066846;28;20028;-59
2021/12/14 07:14:14;;;;;;;31.17;15.90;;;;;;;6.64;95.50;102608.75;5066535;28;20020;-59
2021/12/14 07:16:45;;;;;;;32.15;16.08;;;;;;;6.66;95.79;102610.19;5057436;28;20039;-58
2021/12/14 07:19:11;;;;;;;30.45;15.82;;;;;;;6.65;95.50;102619.50;5070581;28;20047;-57
2021/12/14 07:21:39;;;;;;;34.50;16.45;;;;;;;6.65;95.64;102616.75;5061083;28;20551;-58
2021/12/14 07:24:24;;;;;;;31.58;15.73;;;;;;;6.66;95.82;102631.38;5064390;28;20029;-59
2021/12/14 07:27:10;;;;;;;33.10;16.52;;;;;;;6.62;95.94;102633.72;5056243;28;20541;-58
2021/12/14 07:29:36;;;;;;;32.75;16.77;;;;;;;6.62;95.67;102628.22;5053867;28;20099;-59
2021/12/14 07:32:01;;;;;;;34.13;17.88;;;;;;;6.62;95.80;102638.41;5058035;28;20104;-59
2021/12/14 07:34:26;;;;;;;33.50;16.40;;;;;;;6.63;96.13;102640.91;5056668;28;20485;-58
2021/12/14 07:36:52;;;;;;;33.22;17.20;;;;;;;6.61;95.98;102640.31;5060196;28;20074;-58
2021/12/14 07:39:19;;;;;;;33.65;17.50;;;;;;;6.59;96.04;102649.84;5066244;28;20100;-59
2021/12/14 07:41:46;;;;;;;32.72;16.52;;;;;;;6.54;96.27;102648.66;5067613;28;20031;-59
2021/12/14 07:44:17;;;;;;;31.45;17.02;;;;;;;6.47;96.27;102642.41;5058202;28;20575;-59
2021/12/14 07:46:51;;;;;;;32.88;16.30;;;;;;;6.54;96.46;102658.81;5042303;28;20447;-59
2021/12/14 07:49:54;;;;;;;31.20;16.77;;;;;;;6.54;96.44;102662.41;5065819;28;20017;-60
2021/12/14 07:52:22;;;;;;;33.90;17.40;;;;;;;6.53;96.43;102668.13;5068820;28;20403;-62
2021/12/14 07:54:55;;;;;;;32.35;15.52;;;;;;;6.52;96.64;102659.06;5058782;28;20487;-60
2021/12/14 07:57:25;;;;;;;32.88;17.42;;;;;;;6.53;96.47;102668.13;5065212;28;20055;-59
2021/12/14 07:59:52;;;;;;;32.30;16.77;;;;;;;6.48;96.57;102655.06;5067263;28;20063;-59
2021/12/14 08:02:28;;;;;;;32.53;16.98;;;;;;;6.49;96.52;102664.19;5073383;28;20032;-59
2021/12/14 08:04:56;;;;;;;33.95;17.38;;;;;;;6.50;96.81;102669.44;5054354;28;20033;-60
2021/12/14 08:07:32;;;;;;;33.83;17.48;;;;;;;6.48;96.87;102660.56;5054038;28;20137;-59
2021/12/14 08:10:24;;;;;;;34.97;17.02;;;;;;;6.53;97.00;102668.13;5053846;28;20123;-59
2021/12/14 08:13:13;;;;;;;34.50;17.90;;;;;;;6.54;96.91;102680.81;5054026;28;20032;-59
2021/12/14 08:15:53;;;;;;;33.72;17.00;;;;;;;6.47;96.77;102663.56;5053396;28;20056;-60
2021/12/14 08:18:23;;;;;;;34.42;17.75;;;;;;;6.55;96.92;102669.59;5053753;28;20032;-59
2021/12/14 08:20:53;;;;;;;34.35;18.10;;;;;;;6.56;96.78;102676.75;5057632;28;20479;-59
2021/12/14 08:23:28;;;;;;;34.75;17.73;;;;;;;6.55;96.76;102666.84;5064651;28;20504;-59
2021/12/14 08:26:11;;;;;;;34.15;17.02;;;;;;;6.63;96.88;102676.66;5067690;28;20464;-60
2021/12/14 08:28:52;;;;;;;34.60;17.48;;;;;;;6.61;96.49;102675.22;5057124;28;20027;-59
2021/12/14 08:31:19;;;;;;;34.25;17.17;;;;;;;6.65;96.40;102677.25;5064675;28;20032;-59
2021/12/14 08:33:54;;;;;;;35.08;17.27;;;;;;;6.61;96.50;102665.06;5061050;28;20052;-59
2021/12/14 08:36:19;;;;;;;33.67;17.52;;;;;;;6.64;96.44;102678.34;5055556;28;20024;-60
2021/12/14 08:38:45;;;;;;;34.60;18.08;;;;;;;6.69;96.69;102681.22;5052981;28;20024;-60
2021/12/14 08:41:18;;;;;;;35.97;18.05;;;;;;;6.63;96.37;102676.66;5055356;28;20527;-59
2021/12/14 08:43:48;;;;;;;35.90;18.67;;;;;;;6.64;96.34;102670.09;5052913;28;20044;-59
2021/12/14 08:46:23;;;;;;;34.45;17.88;;;;;;;6.71;96.40;102686.50;5057804;28;20037;-60
2021/12/14 08:48:53;;;;;;;37.38;18.55;;;;;;;6.71;96.45;102678.25;5052574;28;20116;-60
2021/12/14 08:51:31;;;;;;;36.50;19.33;;;;;;;6.77;96.22;102690.22;5054799;28;20031;-59
2021/12/14 08:54:07;;;;;;;36.30;19.65;;;;;;;6.77;96.33;102691.03;5053735;28;20029;-60
2021/12/14 08:56:38;;;;;;;35.65;18.08;;;;;;;6.80;96.22;102685.06;5052988;28;20020;-59
2021/12/14 08:59:05;;;;;;;36.28;19.65;;;;;;;6.83;96.20;102689.25;5056858;28;20039;-60
2021/12/14 09:01:32;;;;;;;32.45;17.55;;;;;;;6.86;95.84;102688.81;5054757;28;20028;-59
2021/12/14 09:04:06;;;;;;;35.78;18.88;;;;;;;6.83;95.84;102687.38;5054818;28;20044;-60
2021/12/14 09:06:35;;;;;;;35.55;18.70;;;;;;;6.86;95.72;102684.13;5053015;28;20555;-54
2021/12/14 09:09:06;;;;;;;37.00;18.23;;;;;;;6.94;96.18;102684.88;5069469;28;20614;-56
2021/12/14 09:11:35;;;;;;;36.55;19.10;;;;;;;7.03;95.38;102695.28;5058996;28;20029;-56
2021/12/14 09:14:02;;;;;;;36.00;18.65;;;;;;;7.06;95.20;102687.66;5062654;28;20027;-56
2021/12/14 09:16:30;;;;;;;35.22;19.13;;;;;;;7.06;95.49;102682.97;5052986;28;20386;-56
2021/12/14 09:19:02;;;;;;;37.45;18.73;;;;;;;7.12;95.08;102693.03;5054770;28;20537;-56
2021/12/14 09:21:33;;;;;;;38.00;19.90;;;;;;;7.14;94.72;102699.13;5062148;28;20021;-56
2021/12/14 09:24:05;;;;;;;39.83;19.73;;;;;;;7.20;95.02;102697.34;5051700;28;20033;-56
2021/12/14 09:26:34;;;;;;;36.90;18.80;;;;;;;7.25;94.56;102685.63;5052968;28;20036;-56
2021/12/14 09:29:00;;;;;;;36.15;18.17;;;;;;;7.30;94.54;102692.09;5053079;28;20476;-56
2021/12/14 09:31:31;;;;;;;38.30;18.15;;;;;;;7.32;94.00;102687.19;5052841;28;20037;-56
2021/12/14 09:33:59;;;;;;;36.38;19.02;;;;;;;7.38;94.06;102696.41;5053485;28;20079;-56
2021/12/14 09:36:25;;;;;;;36.95;19.42;;;;;;;7.42;93.58;102694.00;5051611;28;20025;-56
2021/12/14 09:39:12;;;;;;;36.40;18.98;;;;;;;7.41;93.75;102701.44;5052827;28;20357;-56
2021/12/14 09:41:41;;;;;;;38.15;19.52;;;;;;;7.43;93.37;102701.19;5052759;28;20047;-55
2021/12/14 09:44:09;;;;;;;36.95;20.17;;;;;;;7.40;93.50;102693.41;5052601;28;20481;-57
2021/12/14 09:46:37;;;;;;;36.25;18.95;;;;;;;7.31;93.40;102681.94;5052702;28;20052;-56
2021/12/14 09:49:06;;;;;;;39.08;20.15;;;;;;;7.38;93.93;102688.16;5053239;28;20025;-58
2021/12/14 09:51:38;;;;;;;37.55;19.55;;;;;;;7.37;93.53;102680.97;5052675;28;20094;-56
2021/12/14 09:54:08;;;;;;;36.63;19.35;;;;;;;7.43;93.80;102691.00;5056801;28;20033;-56
2021/12/14 09:56:38;;;;;;;38.17;19.15;;;;;;;7.38;93.57;102679.03;5057288;28;20025;-58
2021/12/14 09:59:05;;;;;;;38.08;20.80;;;;;;;7.47;93.71;102680.34;5056650;28;20024;-56
2021/12/14 10:01:36;;;;;;;38.10;20.30;;;;;;;7.49;93.85;102680.97;5057032;28;20110;-56
2021/12/14 10:04:12;;;;;;;38.45;20.05;;;;;;;7.56;93.65;102687.16;5056894;28;20068;-58
2021/12/14 10:06:38;;;;;;;36.30;18.63;;;;;;;7.63;93.12;102687.91;5056606;28;20024;-56
2021/12/14 10:09:11;;;;;;;37.67;20.52;;;;;;;7.70;92.67;102687.75;5056673;28;20021;-58
2021/12/14 10:11:48;;;;;;;36.58;18.65;;;;;;;7.75;92.75;102687.03;5056243;28;20044;-56
2021/12/14 10:14:17;;;;;;;36.53;20.23;;;;;;;7.72;92.34;102677.34;5056677;28;20029;-58
2021/12/14 10:16:42;;;;;;;36.45;19.95;;;;;;;7.81;92.45;102683.34;5056340;28;20025;-56
2021/12/14 10:19:12;;;;;;;38.05;20.15;;;;;;;7.82;92.64;102676.75;5056231;28;20043;-58
2021/12/14 10:21:46;;;;;;;38.42;20.02;;;;;;;7.81;92.41;102678.66;5056787;28;20432;-57
2021/12/14 10:24:12;;;;;;;36.90;19.88;;;;;;;7.88;92.54;102684.03;5056322;28;20025;-56
2021/12/14 10:26:42;;;;;;;38.17;20.17;;;;;;;7.95;92.76;102692.16;5056324;28;20029;-56
2021/12/14 10:29:08;;;;;;;37.78;19.27;;;;;;;8.02;92.08;102695.63;5056100;28;20021;-57
2021/12/14 10:31:43;;;;;;;38.45;20.75;;;;;;;8.04;91.97;102679.69;5056321;28;20027;-58
2021/12/14 10:34:14;;;;;;;38.00;20.67;;;;;;;8.07;91.50;102681.97;5056139;28;20539;-56
2021/12/14 10:36:45;;;;;;;37.17;19.50;;;;;;;8.12;91.42;102695.84;5055953;28;20415;-56
2021/12/14 10:44:37;;;;;;;38.17;20.77;;;;;;;8.14;90.94;102690.06;5055842;28;20040;-58
2021/12/14 10:47:04;;;;;;;37.08;19.83;;;;;;;8.20;91.22;102705.66;5055728;28;20021;-56
2021/12/14 10:49:30;;;;;;;38.22;20.63;;;;;;;8.22;91.33;102697.13;5055887;28;20495;-56
2021/12/14 10:51:59;;;;;;;37.60;19.70;;;;;;;8.19;90.90;102686.56;5055601;28;20025;-56
2021/12/14 10:54:26;;;;;;;38.10;20.60;;;;;;;8.28;90.88;102699.75;5055826;28;20079;-56
2021/12/14 10:56:56;;;;;;;38.63;20.77;;;;;;;8.23;91.02;102685.03;5055765;28;20472;-56
2021/12/14 10:59:26;;;;;;;36.90;20.75;;;;;;;8.27;90.82;102681.53;5055617;28;20107;-55
2021/12/14 11:01:52;;;;;;;39.17;21.05;;;;;;;8.34;90.70;102684.16;5055686;28;20029;-57
2021/12/14 11:04:27;;;;;;;40.08;21.38;;;;;;;8.40;90.77;102682.31;5055267;28;20072;-55
2021/12/14 11:06:55;;;;;;;40.45;21.48;;;;;;;8.32;90.66;102682.69;5055620;28;20417;-57
2021/12/14 11:09:43;;;;;;;38.97;21.30;;;;;;;8.31;90.77;102670.00;5055865;28;20482;-55
2021/12/14 11:12:20;;;;;;;36.90;20.45;;;;;;;8.35;90.77;102687.72;5054258;28;20059;-56
2021/12/14 11:14:48;;;;;;;40.55;22.33;;;;;;;8.30;90.71;102673.84;5055546;28;20059;-57
2021/12/14 11:20:06;;;;;;;39.40;21.42;;;;;;;8.38;90.59;102667.94;5055538;28;20048;-55
2021/12/14 11:22:43;;;;;;;39.83;21.80;;;;;;;8.43;90.63;102668.03;5054256;28;20457;-55
2021/12/14 11:25:14;;;;;;;40.97;22.85;;;;;;;8.46;90.54;102666.69;5055175;28;20415;-57
2021/12/14 11:27:46;;;;;;;39.33;20.77;;;;;;;8.54;90.18;102667.16;5055221;28;20029;-57
2021/12/14 11:30:20;;;;;;;39.60;22.45;;;;;;;8.58;90.10;102664.75;5054902;28;20063;-55
2021/12/14 11:33:01;;;;;;;39.33;22.13;;;;;;;8.60;90.28;102654.31;5054814;28;20495;-56
2021/12/14 11:35:30;;;;;;;39.80;21.60;;;;;;;8.62;89.99;102654.03;5054914;28;20484;-57
2021/12/14 11:37:59;;;;;;;41.83;21.23;;;;;;;8.72;89.38;102652.31;5054838;28;20491;-57
2021/12/14 11:40:28;;;;;;;38.25;22.85;;;;;;;8.74;89.56;102649.31;5054904;28;20071;-55
2021/12/14 11:43:15;;;;;;;38.30;21.65;;;;;;;8.83;89.76;102661.59;5054530;28;20132;-56
2021/12/14 11:45:41;;;;;;;39.47;22.02;;;;;;;8.83;89.25;102658.03;5054819;28;20071;-56
2021/12/14 11:48:08;;;;;;;41.15;22.15;;;;;;;8.86;89.34;102657.50;5054819;28;20021;-55
2021/12/14 11:50:38;;;;;;;40.83;22.77;;;;;;;8.87;89.00;102654.50;5054756;28;20025;-55
2021/12/14 11:53:06;;;;;;;38.55;21.60;;;;;;;8.88;89.29;102652.59;5054647;28;20024;-57
2021/12/14 11:55:38;;;;;;;39.58;21.63;;;;;;;8.89;88.91;102654.25;5054661;28;20028;-55
2021/12/14 11:58:43;;;;;;;40.83;23.33;;;;;;;8.90;89.36;102653.16;5054511;28;20111;-55
2021/12/14 12:01:14;;;;;;;40.10;22.52;;;;;;;8.94;88.98;102650.75;5042739;28;20060;-57
2021/12/14 12:03:47;;;;;;;42.13;22.92;;;;;;;8.94;89.04;102647.97;5054442;28;20064;-57
2021/12/14 12:11:50;;;;;;;40.67;22.95;;;;;;;8.85;89.26;102664.09;5054311;28;20140;-57
2021/12/14 12:14:22;;;;;;;42.00;23.15;;;;;;;8.78;89.09;102647.75;5054193;28;20017;-58
2021/12/14 12:16:49;;;;;;;41.92;24.00;;;;;;;8.84;89.56;102656.91;5053681;28;20041;-58
2021/12/14 12:19:20;;;;;;;43.00;24.23;;;;;;;8.83;89.58;102658.84;5054050;28;20119;-58